KCMI/CMI METAR and TAF weather

Enter ICAO airport designator
Station Type Date Time Source
KCMI METAR 2018/10/22 16:53 UTC NOAA

KCMI 221653Z 23010KT 9SM CLR 16/04 A3011 RMK AO2 SLP198 T01610039


Station Type Date Time Source
KCMI Decoded METAR 2018/10/22 16:53 UTC NOAA

UNIV OF ILLINOIS-WILLARD, IL, United States (KCMI) 40-02N 088-16W 228M
Oct 22, 2018 - 12:53 PM EDT / 2018.10.22 1653 UTC
Wind: from the SW (230 degrees) at 12 MPH (10 KT):0
Visibility: 9 mile(s):0
Sky conditions: clear
Temperature: 61.0 F (16.1 C)
Dew Point: 39.0 F (3.9 C)
Relative Humidity: 44%
Pressure (altimeter): 30.11 in. Hg (1019 hPa)
ob: KCMI 221653Z 23010KT 9SM CLR 16/04 A3011 RMK AO2 SLP198 T01610039
cycle: 17

Station Type Date Time Source
KCMI TAF 2018/10/22 12:22 UTC NOAA

TAF KCMI 221120Z 2212/2312 21009KT P6SM FEW250
FM221500 24012G17KT P6SM SCT250
FM222200 26010KT P6SM FEW250
FM230000 28006KT P6SM SKC
FM230600 31007KT P6SM SKC


Example: see airport list